Time;durP1;ratioP1;P1;durP2;ratioP2;P2;SDS_P1;SDS_P2;PMS_P1;PMS_P2;Temp;Humidity;BMP_temperature;BMP_pressure;BME280_temperature;BME280_humidity;BME280_pressure;Samples;Min_cycle;Max_cycle;Signal;HPM_P1;HPM_P2
2023/01/08 00:01:31;;;;;;;1.75;1.17;;;;;;;9.33;95.42;100212.16;5027579;28;20042;-80
2023/01/08 00:03:56;;;;;;;4.25;1.35;;;;;;;9.26;95.40;100211.19;5026320;28;20474;-81
2023/01/08 00:06:22;;;;;;;3.25;1.20;;;;;;;9.16;96.31;100203.59;5027187;28;20038;-80
2023/01/08 00:08:47;;;;;;;2.17;1.00;;;;;;;9.12;96.82;100211.84;5027999;28;20032;-79
2023/01/08 00:11:13;;;;;;;3.47;1.40;;;;;;;9.10;96.95;100208.63;5031823;28;20034;-80
2023/01/08 00:13:38;;;;;;;2.22;1.20;;;;;;;9.19;96.80;100214.59;5030039;28;20038;-80
2023/01/08 00:16:15;;;;;;;6.35;1.15;;;;;;;9.14;96.72;100215.09;5009772;28;20040;-80
2023/01/08 00:18:42;;;;;;;3.65;1.35;;;;;;;9.20;96.73;100206.66;5041363;28;20478;-81
2023/01/08 00:21:08;;;;;;;5.45;1.30;;;;;;;9.23;96.16;100221.06;5009166;28;20441;-80
2023/01/08 00:23:35;;;;;;;3.40;1.45;;;;;;;9.15;96.32;100206.34;5008788;28;20025;-81
2023/01/08 00:26:02;;;;;;;2.88;1.40;;;;;;;9.14;96.56;100212.50;5043230;28;20034;-80
2023/01/08 00:28:28;;;;;;;4.72;1.40;;;;;;;9.25;96.23;100209.59;5039309;28;20037;-81
2023/01/08 00:30:54;;;;;;;4.93;1.42;;;;;;;9.19;96.73;100212.81;5040871;28;20107;-81
2023/01/08 00:33:20;;;;;;;4.82;1.88;;;;;;;9.11;96.90;100213.59;5029798;28;20581;-80
2023/01/08 00:35:46;;;;;;;3.08;1.25;;;;;;;9.11;96.91;100212.81;5031251;28;20034;-80
2023/01/08 00:38:11;;;;;;;2.28;1.40;;;;;;;9.02;97.82;100214.56;5031181;28;20136;-80
2023/01/08 00:40:37;;;;;;;4.10;1.30;;;;;;;9.07;97.10;100208.94;5045434;28;20049;-80
2023/01/08 00:43:03;;;;;;;3.25;1.48;;;;;;;9.15;97.17;100199.41;5028787;28;20094;-80
2023/01/08 00:45:29;;;;;;;4.05;1.35;;;;;;;9.19;96.57;100196.47;5027385;28;20045;-81
2023/01/08 00:47:54;;;;;;;2.92;1.60;;;;;;;9.28;96.66;100198.91;5024031;28;20032;-80
2023/01/08 00:50:19;;;;;;;3.53;1.60;;;;;;;9.16;96.59;100189.88;5022726;28;20049;-80
2023/01/08 00:52:45;;;;;;;2.53;1.58;;;;;;;9.06;96.69;100177.09;5024232;28;20040;-80
2023/01/08 00:55:10;;;;;;;3.40;1.50;;;;;;;9.18;96.91;100182.75;5027050;28;20402;-80
2023/01/08 00:57:38;;;;;;;4.82;1.45;;;;;;;9.11;96.76;100186.94;5021117;28;20422;-79
2023/01/08 01:00:05;;;;;;;3.15;1.40;;;;;;;9.11;96.54;100177.41;5010616;28;20041;-80
2023/01/08 01:02:31;;;;;;;2.25;1.40;;;;;;;9.14;96.86;100179.66;5009939;28;20037;-79
2023/01/08 01:04:56;;;;;;;4.30;1.60;;;;;;;9.21;95.77;100187.59;5026852;28;20122;-80
2023/01/08 01:07:22;;;;;;;3.55;1.75;;;;;;;9.19;96.03;100181.75;5028507;28;20092;-80
2023/01/08 01:09:47;;;;;;;4.57;1.50;;;;;;;9.10;96.32;100178.38;5024431;28;20472;-80
2023/01/08 01:12:14;;;;;;;4.13;1.67;;;;;;;9.07;97.00;100177.91;5027691;28;20037;-80
2023/01/08 01:14:39;;;;;;;4.90;1.63;;;;;;;9.18;95.98;100176.78;5023425;28;20104;-80
2023/01/08 01:17:05;;;;;;;2.72;1.67;;;;;;;9.16;96.44;100175.13;5024730;28;20488;-80
2023/01/08 01:19:30;;;;;;;1.73;1.40;;;;;;;9.12;96.65;100184.19;5023948;28;20040;-80
2023/01/08 01:21:56;;;;;;;3.25;1.75;;;;;;;9.14;96.10;100177.09;5000537;28;20065;-80
2023/01/08 01:24:23;;;;;;;3.70;1.25;;;;;;;9.22;95.54;100178.06;5023556;28;20076;-80
2023/01/08 01:26:50;;;;;;;3.30;1.58;;;;;;;9.29;94.99;100186.78;5037630;28;20673;-80
2023/01/08 01:29:16;;;;;;;3.50;1.83;;;;;;;9.27;95.54;100180.97;5022480;28;20076;-80
2023/01/08 01:31:42;;;;;;;5.88;1.77;;;;;;;9.32;95.72;100174.34;5020781;28;20081;-79
2023/01/08 01:34:08;;;;;;;4.05;1.80;;;;;;;9.25;95.28;100180.31;5023890;28;20033;-79
2023/01/08 01:36:34;;;;;;;4.90;2.08;;;;;;;9.20;95.92;100177.41;5045018;28;20037;-80
2023/01/08 01:39:00;;;;;;;4.57;1.75;;;;;;;9.24;96.62;100176.91;5029182;28;20124;-80
2023/01/08 01:41:41;;;;;;;3.17;1.58;;;;;;;9.16;96.66;100169.16;5042633;28;20038;-80
2023/01/08 01:44:31;;;;;;;7.05;1.75;;;;;;;9.13;97.05;100162.53;5029075;28;20072;-80
2023/01/08 01:46:57;;;;;;;7.15;1.73;;;;;;;9.16;96.50;100169.16;5008016;28;20053;-80
2023/01/08 01:49:22;;;;;;;3.67;1.73;;;;;;;9.11;97.13;100164.47;5015685;28;20033;-80
2023/01/08 01:51:56;;;;;;;5.18;2.05;;;;;;;9.11;97.39;100167.06;5031067;28;20398;-80
2023/01/08 01:54:22;;;;;;;3.63;1.83;;;;;;;9.20;96.43;100161.91;5010117;28;20075;-80
2023/01/08 01:56:48;;;;;;;6.38;1.67;;;;;;;9.24;96.12;100150.25;5005392;28;20061;-80
2023/01/08 01:59:15;;;;;;;6.28;2.17;;;;;;;9.25;95.74;100151.84;5012217;28;20063;-80
2023/01/08 02:01:41;;;;;;;4.95;1.70;;;;;;;9.18;95.93;100146.53;5008873;28;20105;-81
2023/01/08 02:04:11;;;;;;;4.00;1.27;;;;;;;9.14;96.57;100150.41;5027289;28;20045;-79
2023/01/08 02:06:58;;;;;;;2.30;1.35;;;;;;;9.23;96.14;100136.50;5024243;28;20120;-80
2023/01/08 02:09:46;;;;;;;3.72;1.73;;;;;;;9.21;95.29;100129.88;5037958;28;20437;-80
2023/01/08 02:12:22;;;;;;;6.72;1.98;;;;;;;9.36;94.34;100130.81;5026819;28;20044;-80
2023/01/08 02:15:33;;;;;;;8.65;1.63;;;;;;;9.18;95.05;100131.00;5042604;28;20075;-80
2023/01/08 02:18:16;;;;;;;6.63;1.80;;;;;;;9.35;94.26;100131.81;5047443;28;20129;-80
2023/01/08 02:21:03;;;;;;;5.33;2.23;;;;;;;9.28;94.35;100125.66;5043557;28;20387;-80
2023/01/08 02:23:47;;;;;;;2.80;1.60;;;;;;;9.26;94.65;100127.59;5017078;28;20799;-80
2023/01/08 02:26:26;;;;;;;5.03;1.90;;;;;;;9.19;94.66;100116.28;5041714;28;20041;-80
2023/01/08 02:29:15;;;;;;;4.70;1.80;;;;;;;9.25;94.58;100113.03;5025504;28;20037;-80
2023/01/08 02:31:42;;;;;;;5.47;1.85;;;;;;;9.24;94.75;100111.44;5020059;28;20054;-80
2023/01/08 02:34:09;;;;;;;4.50;1.50;;;;;;;9.31;94.18;100109.81;5027977;28;20041;-80
2023/01/08 02:36:49;;;;;;;6.93;1.85;;;;;;;9.34;93.88;100110.31;5008756;28;20179;-80
2023/01/08 02:39:33;;;;;;;3.13;1.63;;;;;;;9.38;93.58;100105.59;5043590;28;20033;-80
2023/01/08 02:42:20;;;;;;;8.20;2.10;;;;;;;9.27;94.47;100099.00;5026735;28;20072;-80
2023/01/08 02:45:23;;;;;;;3.20;1.83;;;;;;;9.21;94.52;100091.91;5038758;28;20042;-80
2023/01/08 02:47:57;;;;;;;7.25;2.08;;;;;;;9.31;93.76;100089.91;5041375;28;20033;-80
2023/01/08 02:50:35;;;;;;;4.30;1.67;;;;;;;9.22;94.27;100082.34;5025028;28;20151;-80
2023/01/08 02:53:29;;;;;;;6.70;1.83;;;;;;;9.23;94.02;100077.00;5047481;28;20034;-80
2023/01/08 02:55:58;;;;;;;6.90;1.95;;;;;;;9.26;93.96;100073.28;5045200;28;20051;-81
2023/01/08 02:58:26;;;;;;;6.93;2.10;;;;;;;9.25;93.95;100069.06;5032704;28;20026;-80
2023/01/08 03:00:53;;;;;;;5.32;1.90;;;;;;;9.28;93.80;100068.75;5030509;28;20033;-80
2023/01/08 03:03:23;;;;;;;5.32;1.88;;;;;;;9.21;93.79;100067.78;5012823;28;20021;-80
2023/01/08 03:05:52;;;;;;;5.60;1.95;;;;;;;9.23;94.22;100071.84;5028312;28;20041;-80
2023/01/08 03:08:20;;;;;;;3.30;1.60;;;;;;;9.46;92.79;100056.41;5027374;28;20061;-80
2023/01/08 03:10:51;;;;;;;3.75;1.95;;;;;;;9.48;92.45;100045.91;5030019;28;20068;-80
2023/01/08 03:13:37;;;;;;;5.72;1.70;;;;;;;9.31;92.70;100050.31;5031832;28;20057;-80
2023/01/08 03:16:07;;;;;;;3.75;1.60;;;;;;;9.28;93.05;100050.63;5030718;28;20042;-80
2023/01/08 03:18:38;;;;;;;5.10;1.50;;;;;;;9.38;92.13;100058.22;5032450;28;20026;-80
2023/01/08 03:21:05;;;;;;;3.38;1.55;;;;;;;9.42;92.46;100062.06;5029407;28;20050;-80
2023/01/08 03:23:33;;;;;;;3.00;1.40;;;;;;;9.45;92.10;100067.72;5030694;28;20072;-80
2023/01/08 03:26:01;;;;;;;2.15;1.10;;;;;;;9.47;91.87;100063.19;5011588;28;20033;-80
2023/01/08 03:28:32;;;;;;;2.15;1.30;;;;;;;9.36;91.67;100055.78;5024942;28;20722;-80
2023/01/08 03:30:59;;;;;;;2.67;1.38;;;;;;;9.40;92.10;100059.69;5011029;28;20553;-80
2023/01/08 03:33:26;;;;;;;5.50;1.52;;;;;;;9.45;91.30;100059.16;5030606;28;20072;-80
2023/01/08 03:35:56;;;;;;;2.53;1.38;;;;;;;9.40;91.81;100058.84;5016987;28;20033;-80
2023/01/08 03:38:26;;;;;;;2.78;1.55;;;;;;;9.32;92.11;100062.25;5031555;28;20060;-80
2023/01/08 03:40:59;;;;;;;2.15;1.40;;;;;;;9.39;92.34;100052.88;5037050;28;20037;-80
2023/01/08 03:43:25;;;;;;;1.73;1.20;;;;;;;9.37;91.72;100043.66;5026833;28;20038;-80
2023/01/08 03:45:55;;;;;;;3.03;1.13;;;;;;;9.35;91.95;100046.41;5028936;28;20041;-80
2023/01/08 03:48:23;;;;;;;3.42;1.30;;;;;;;9.27;92.60;100062.78;5030208;28;20036;-80
2023/01/08 03:50:49;;;;;;;2.78;1.20;;;;;;;9.34;92.19;100052.56;5014365;28;20397;-80
2023/01/08 03:53:15;;;;;;;2.42;1.40;;;;;;;9.39;91.66;100046.91;5029444;28;20029;-79
2023/01/08 03:55:41;;;;;;;3.08;1.10;;;;;;;9.41;91.39;100037.19;5024494;28;20034;-80
2023/01/08 03:58:06;;;;;;;4.47;1.10;;;;;;;9.36;91.90;100050.59;5031250;28;20029;-80
2023/01/08 04:00:31;;;;;;;2.20;0.85;;;;;;;9.45;91.15;100047.03;5010175;28;20033;-80
2023/01/08 04:02:57;;;;;;;1.52;0.98;;;;;;;9.33;91.50;100048.38;5031885;28;20041;-80
2023/01/08 04:05:23;;;;;;;3.50;1.13;;;;;;;9.36;91.45;100040.25;5014695;28;20390;-80
2023/01/08 04:07:48;;;;;;;1.40;0.80;;;;;;;9.33;91.54;100038.81;5030639;28;20033;-80
2023/01/08 04:10:14;;;;;;;3.78;1.00;;;;;;;9.33;91.70;100038.81;5025015;28;20037;-80
2023/01/08 04:12:42;;;;;;;2.38;0.82;;;;;;;9.35;91.89;100028.31;5017842;28;20402;-80
2023/01/08 04:15:08;;;;;;;2.45;0.90;;;;;;;9.36;91.79;100029.91;5028927;28;20029;-80
2023/01/08 04:17:33;;;;;;;2.55;1.00;;;;;;;9.37;91.04;100026.34;5032555;28;20103;-80
2023/01/08 04:19:59;;;;;;;3.53;0.75;;;;;;;9.35;91.37;100026.53;5029813;28;20052;-80
2023/01/08 04:22:24;;;;;;;3.70;1.00;;;;;;;9.41;90.93;100021.66;5012848;28;20048;-81
2023/01/08 04:24:50;;;;;;;2.22;1.30;;;;;;;9.29;91.23;100024.59;5030996;28;20042;-80
2023/01/08 04:27:15;;;;;;;6.18;1.10;;;;;;;9.29;91.95;100018.63;5028281;28;20030;-80
2023/01/08 04:29:41;;;;;;;1.90;1.20;;;;;;;9.27;91.32;100018.00;5013936;28;20060;-80
2023/01/08 04:32:06;;;;;;;3.55;0.75;;;;;;;9.22;91.63;100028.81;5013864;28;20029;-80
2023/01/08 04:34:31;;;;;;;2.50;0.82;;;;;;;9.35;90.71;100025.72;5029793;28;20041;-80
2023/01/08 04:36:57;;;;;;;1.38;0.80;;;;;;;9.38;90.65;100028.00;5012632;28;20083;-80
2023/01/08 04:39:23;;;;;;;1.48;0.70;;;;;;;9.27;91.40;100023.16;5026067;28;20124;-80
2023/01/08 04:41:48;;;;;;;1.63;0.70;;;;;;;9.23;91.54;100034.78;5015427;28;20038;-80
2023/01/08 04:44:14;;;;;;;1.55;0.90;;;;;;;9.19;91.59;100020.59;5030084;28;20029;-80
2023/01/08 04:46:39;;;;;;;2.25;0.63;;;;;;;9.37;89.87;100022.97;5030827;28;20693;-80
2023/01/08 04:49:05;;;;;;;0.93;0.60;;;;;;;9.39;90.15;100015.84;5012432;28;20064;-80
2023/01/08 04:51:30;;;;;;;2.97;1.25;;;;;;;9.29;90.45;100013.47;5027465;28;20398;-81
2023/01/08 04:53:56;;;;;;;1.80;0.70;;;;;;;9.28;90.27;100017.00;5017145;28;20643;-80
2023/01/08 04:56:21;;;;;;;1.13;0.60;;;;;;;9.32;89.51;100013.94;5028055;28;20121;-80
2023/01/08 04:58:47;;;;;;;1.27;0.80;;;;;;;9.29;89.73;100014.25;5029980;28;20093;-80
2023/01/08 05:01:17;;;;;;;2.35;0.90;;;;;;;9.27;90.12;100020.59;5018257;28;20045;-80
2023/01/08 05:03:43;;;;;;;1.88;0.63;;;;;;;9.32;89.21;100023.44;5028947;28;20124;-80
2023/01/08 05:06:08;;;;;;;3.85;0.70;;;;;;;9.30;89.53;100012.47;5029476;28;20034;-80
2023/01/08 05:08:34;;;;;;;3.47;0.43;;;;;;;9.26;88.96;100013.78;5016431;28;20091;-80
2023/01/08 05:11:00;;;;;;;1.30;0.50;;;;;;;9.23;89.59;99999.41;5025428;28;20517;-80
2023/01/08 05:13:26;;;;;;;3.47;0.70;;;;;;;9.20;90.32;100007.50;5030450;28;20033;-80
2023/01/08 05:15:52;;;;;;;2.72;0.63;;;;;;;9.38;88.84;99999.53;5026977;28;20500;-80
2023/01/08 05:18:17;;;;;;;4.53;0.70;;;;;;;9.32;89.27;100000.16;5028015;28;20033;-80
2023/01/08 05:20:43;;;;;;;2.35;0.50;;;;;;;9.20;89.28;99988.59;5010669;28;20030;-81
2023/01/08 05:23:08;;;;;;;2.70;0.60;;;;;;;9.19;88.58;99997.31;5014207;28;20034;-80
2023/01/08 05:25:34;;;;;;;2.30;0.60;;;;;;;9.20;88.48;99993.75;5025106;28;20042;-80
2023/01/08 05:28:00;;;;;;;2.42;0.70;;;;;;;9.16;88.59;99988.09;5026692;28;20475;-80
2023/01/08 05:30:25;;;;;;;1.17;0.70;;;;;;;9.21;87.79;99993.59;5046128;28;20049;-80
2023/01/08 05:32:51;;;;;;;1.52;0.60;;;;;;;9.15;88.49;99989.91;5009328;28;20450;-80
2023/01/08 05:35:16;;;;;;;3.60;0.70;;;;;;;9.15;87.81;99984.72;5027641;28;20029;-80
2023/01/08 05:37:42;;;;;;;1.95;0.73;;;;;;;9.21;87.27;99978.06;5027006;28;20044;-80
2023/01/08 05:40:08;;;;;;;3.00;0.50;;;;;;;9.15;88.06;99986.47;5010821;28;20052;-80
2023/01/08 05:42:34;;;;;;;2.00;0.50;;;;;;;9.21;87.24;99979.84;5009730;28;20503;-80
2023/01/08 05:45:00;;;;;;;6.15;0.80;;;;;;;9.16;87.70;99978.56;5027296;28;20486;-79
2023/01/08 05:47:29;;;;;;;1.70;0.63;;;;;;;9.26;87.07;99982.75;5042891;28;20067;-80
2023/01/08 05:49:55;;;;;;;3.13;0.77;;;;;;;9.10;87.77;99984.41;5027879;28;20037;-80
2023/01/08 05:52:20;;;;;;;1.42;0.57;;;;;;;9.13;87.97;99981.47;5041600;28;20045;-80
2023/01/08 05:54:46;;;;;;;2.20;0.77;;;;;;;9.12;87.72;99985.03;5046854;28;20048;-80
2023/01/08 05:57:11;;;;;;;3.15;0.82;;;;;;;9.03;88.74;99975.69;5026371;28;20033;-80
2023/01/08 05:59:37;;;;;;;5.32;0.80;;;;;;;8.96;89.39;99985.88;5025969;28;20055;-80
2023/01/08 06:02:02;;;;;;;1.05;0.50;;;;;;;9.02;89.39;99996.53;5026840;28;20033;-80
2023/01/08 06:04:28;;;;;;;1.23;0.75;;;;;;;9.21;89.22;100016.06;5011616;28;20111;-80
2023/01/08 06:06:53;;;;;;;6.63;0.75;;;;;;;9.19;91.27;100051.63;5010778;28;20383;-79
2023/01/08 06:09:18;;;;;;;5.20;0.70;;;;;;;8.95;92.99;100040.38;5025070;28;20030;-80
2023/01/08 06:11:44;;;;;;;5.75;0.60;;;;;;;8.69;95.04;100038.75;5025876;28;20154;-81
2023/01/08 06:14:09;;;;;;;4.97;0.55;;;;;;;8.58;95.52;100050.22;5012031;28;20029;-81
2023/01/08 06:16:35;;;;;;;5.05;1.05;;;;;;;8.47;96.74;100058.28;5025500;28;20486;-81
2023/01/08 06:19:00;;;;;;;2.28;0.70;;;;;;;8.31;97.58;100050.50;5026648;28;20166;-79
2023/01/08 06:21:26;;;;;;;5.18;0.80;;;;;;;8.15;98.91;100061.59;5028496;28;20045;-80
2023/01/08 06:23:51;;;;;;;7.30;0.80;;;;;;;8.15;99.70;100051.25;5024794;28;20045;-81
2023/01/08 06:26:17;;;;;;;5.80;0.60;;;;;;;8.07;99.70;100051.25;5028346;28;20029;-81
2023/01/08 06:28:42;;;;;;;3.38;0.65;;;;;;;7.89;100.00;100041.84;5012711;28;20152;-82
2023/01/08 06:31:07;;;;;;;5.68;0.90;;;;;;;7.83;100.00;100042.47;5013298;28;20042;-81
2023/01/08 06:33:33;;;;;;;1.95;0.63;;;;;;;7.81;100.00;100039.22;5031238;28;20037;-81
2023/01/08 06:36:03;;;;;;;2.00;0.63;;;;;;;7.77;100.00;100037.94;5016002;28;20502;-81
2023/01/08 06:38:33;;;;;;;4.13;0.80;;;;;;;7.80;100.00;100041.00;5048251;28;20034;-81
2023/01/08 06:41:06;;;;;;;4.20;0.73;;;;;;;7.77;100.00;100050.84;5030817;28;20406;-81
2023/01/08 06:43:35;;;;;;;4.57;0.68;;;;;;;7.74;100.00;100051.97;5046626;28;20068;-81
2023/01/08 06:46:00;;;;;;;4.82;0.82;;;;;;;7.72;100.00;100047.91;5031080;28;20486;-81
2023/01/08 06:48:26;;;;;;;1.58;0.57;;;;;;;7.75;100.00;100042.44;5034706;28;20040;-81
2023/01/08 06:50:52;;;;;;;5.55;0.90;;;;;;;7.73;100.00;100024.53;5029309;28;21605;-81
2023/01/08 06:53:17;;;;;;;3.55;0.93;;;;;;;7.73;100.00;100041.78;5048148;28;20028;-82
2023/01/08 06:55:43;;;;;;;19.13;6.50;;;;;;;7.74;100.00;100040.81;5029370;28;20517;-80
2023/01/08 06:58:13;;;;;;;23.80;8.75;;;;;;;7.68;100.00;100036.28;5029275;28;20033;-81
2023/01/08 07:00:38;;;;;;;8.52;1.70;;;;;;;7.64;100.00;100046.09;5006533;28;20049;-82
2023/01/08 07:03:04;;;;;;;9.55;2.83;;;;;;;7.62;100.00;100054.97;5046806;28;20406;-81
2023/01/08 07:05:30;;;;;;;8.52;3.33;;;;;;;7.63;100.00;100061.72;5031468;28;20038;-81
2023/01/08 07:07:56;;;;;;;3.40;0.95;;;;;;;7.61;100.00;100064.50;5030213;28;20108;-80
2023/01/08 07:10:22;;;;;;;10.90;2.75;;;;;;;7.58;99.94;100070.75;5027168;28;20387;-80
2023/01/08 07:12:48;;;;;;;9.40;3.13;;;;;;;7.54;100.00;100060.91;5031655;28;20032;-80
2023/01/08 07:15:14;;;;;;;4.55;1.38;;;;;;;7.53;100.00;100070.38;5026264;28;20041;-81
2023/01/08 07:17:39;;;;;;;6.15;1.13;;;;;;;7.71;98.96;100054.03;5031649;28;20037;-81
2023/01/08 07:20:06;;;;;;;2.90;0.85;;;;;;;7.59;98.50;100066.38;5031552;28;21049;-80
2023/01/08 07:22:31;;;;;;;3.88;1.10;;;;;;;7.53;99.20;100059.28;5013687;28;20021;-81
2023/01/08 07:24:57;;;;;;;4.38;1.58;;;;;;;7.58;98.80;100063.00;5014488;28;20034;-80
2023/01/08 07:27:22;;;;;;;7.13;1.83;;;;;;;7.49;98.91;100057.97;5047065;28;20029;-79
2023/01/08 07:29:48;;;;;;;7.25;0.85;;;;;;;7.50;99.44;100064.75;5043013;28;20060;-80
2023/01/08 07:32:14;;;;;;;9.38;1.98;;;;;;;7.46;99.02;100061.69;5029785;28;20056;-81
2023/01/08 07:34:39;;;;;;;2.78;1.13;;;;;;;7.44;98.72;100063.59;5012271;28;20033;-80
2023/01/08 07:37:05;;;;;;;8.18;0.75;;;;;;;7.43;99.01;100066.31;5029911;28;20375;-80
2023/01/08 07:39:31;;;;;;;3.42;0.93;;;;;;;7.44;98.03;100065.34;5031788;28;20048;-81
2023/01/08 07:41:56;;;;;;;5.15;0.80;;;;;;;7.50;96.06;100060.41;5033209;28;20037;-80
2023/01/08 07:44:22;;;;;;;3.40;0.85;;;;;;;7.48;96.84;100057.16;5027881;28;20048;-80
2023/01/08 07:46:47;;;;;;;4.03;0.30;;;;;;;7.48;96.03;100052.00;5013794;28;20099;-80
2023/01/08 07:49:13;;;;;;;3.15;0.52;;;;;;;7.41;95.59;100051.78;5013609;28;20474;-80
2023/01/08 07:51:38;;;;;;;4.78;0.70;;;;;;;7.43;95.76;100066.31;5028768;28;20037;-80
2023/01/08 07:54:04;;;;;;;3.63;0.60;;;;;;;7.39;94.80;100056.31;5016908;28;20033;-81
2023/01/08 07:56:30;;;;;;;3.45;0.68;;;;;;;7.30;95.52;100057.22;5047282;28;20048;-81
2023/01/08 07:58:55;;;;;;;4.75;0.88;;;;;;;7.29;95.53;100050.47;5012143;28;20041;-81
2023/01/08 08:01:21;;;;;;;3.60;1.27;;;;;;;7.24;95.37;100050.09;5028416;28;21648;-80
2023/01/08 08:03:47;;;;;;;7.30;1.05;;;;;;;7.22;95.62;100041.72;5024654;28;20501;-80
2023/01/08 08:06:12;;;;;;;6.82;2.15;;;;;;;7.33;95.18;100045.81;5036154;28;20034;-80
2023/01/08 08:08:38;;;;;;;9.45;1.58;;;;;;;7.26;94.66;100039.63;5045633;28;20059;-80
2023/01/08 08:11:03;;;;;;;7.13;1.38;;;;;;;7.14;95.69;100042.47;5010676;28;20049;-80
2023/01/08 08:13:29;;;;;;;4.63;1.40;;;;;;;7.13;95.86;100050.34;5011627;28;20028;-80
2023/01/08 08:16:03;;;;;;;8.95;2.25;;;;;;;7.06;96.42;100044.97;5029034;28;20049;-80
2023/01/08 08:18:28;;;;;;;8.88;1.40;;;;;;;7.15;96.03;100032.97;5042563;28;20591;-80
2023/01/08 08:20:54;;;;;;;3.65;0.90;;;;;;;7.07;95.51;100031.16;5028308;28;20029;-80
2023/01/08 08:23:19;;;;;;;9.25;0.98;;;;;;;7.05;95.80;100030.47;5039653;28;20037;-80
2023/01/08 08:25:45;;;;;;;8.02;1.00;;;;;;;6.99;96.44;100028.53;5028530;28;20038;-79
2023/01/08 08:28:11;;;;;;;6.63;1.40;;;;;;;6.96;97.22;100039.94;5029843;28;20042;-79
2023/01/08 08:30:37;;;;;;;3.53;1.10;;;;;;;6.92;97.08;100027.50;5025984;28;20041;-79
2023/01/08 08:33:04;;;;;;;4.95;1.25;;;;;;;6.96;97.24;100031.41;5026352;28;20072;-79
2023/01/08 08:35:31;;;;;;;7.68;1.52;;;;;;;6.92;96.83;100033.47;5027014;28;20037;-80
2023/01/08 08:37:57;;;;;;;5.47;0.93;;;;;;;6.95;96.13;100030.59;5013139;28;20037;-79
2023/01/08 08:40:23;;;;;;;6.68;0.70;;;;;;;6.83;96.52;100035.16;5042246;28;20041;-80
2023/01/08 08:43:01;;;;;;;4.07;1.27;;;;;;;6.85;96.59;100032.44;5034028;28;20029;-80
2023/01/08 08:45:27;;;;;;;8.82;1.38;;;;;;;6.90;96.58;100024.28;5023817;28;20519;-80
2023/01/08 08:47:53;;;;;;;7.38;1.20;;;;;;;6.87;96.22;100027.13;5028329;28;20041;-80
2023/01/08 08:50:19;;;;;;;6.72;0.88;;;;;;;6.87;96.24;100011.69;5011312;28;20041;-80
2023/01/08 08:52:45;;;;;;;6.57;1.05;;;;;;;6.95;95.93;100007.41;5009203;28;20108;-80
2023/01/08 08:55:14;;;;;;;3.20;1.25;;;;;;;6.99;95.62;100005.31;5043003;28;20067;-80
2023/01/08 08:57:40;;;;;;;7.50;1.30;;;;;;;6.98;95.39;100007.06;5026590;28;20983;-80
2023/01/08 09:00:07;;;;;;;8.65;1.88;;;;;;;7.00;95.96;100015.47;5027385;28;20033;-80
2023/01/08 09:02:32;;;;;;;8.30;1.52;;;;;;;6.99;96.42;100013.06;5012718;28;20090;-80
2023/01/08 09:04:58;;;;;;;14.15;1.35;;;;;;;7.03;96.68;100016.94;5028813;28;20037;-79
2023/01/08 09:07:23;;;;;;;8.55;1.63;;;;;;;7.25;95.49;100022.53;5024850;28;20037;-80
2023/01/08 09:09:49;;;;;;;6.35;2.47;;;;;;;7.18;95.54;100015.41;5028201;28;20568;-80
2023/01/08 09:12:14;;;;;;;9.70;1.50;;;;;;;7.32;95.38;100013.22;5010853;28;20442;-80
2023/01/08 09:14:39;;;;;;;8.30;1.38;;;;;;;7.44;95.14;100006.84;5028897;28;20040;-80
2023/01/08 09:17:05;;;;;;;17.17;4.15;;;;;;;7.53;95.17;100005.09;5008076;28;20111;-80
2023/01/08 09:19:30;;;;;;;5.97;1.00;;;;;;;7.56;95.18;100008.16;5035550;28;20034;-80
2023/01/08 09:21:56;;;;;;;6.93;1.60;;;;;;;7.64;95.40;100009.97;5018967;28;20478;-80
2023/01/08 09:24:21;;;;;;;11.75;1.35;;;;;;;7.81;94.58;100005.66;5028112;28;20033;-79
2023/01/08 09:26:47;;;;;;;14.93;1.40;;;;;;;7.84;93.88;100013.13;5030490;28;20038;-79
2023/01/08 09:29:12;;;;;;;12.98;1.55;;;;;;;7.75;94.72;100008.88;5031365;28;20048;-80
2023/01/08 09:31:38;;;;;;;9.98;1.30;;;;;;;7.77;94.83;100009.53;5030086;28;20038;-80
2023/01/08 09:34:03;;;;;;;6.82;1.10;;;;;;;7.78;94.83;100006.81;5027522;28;20030;-79
2023/01/08 09:36:28;;;;;;;10.25;1.30;;;;;;;7.87;95.21;100005.03;5029602;28;20478;-80
2023/01/08 09:38:54;;;;;;;9.00;1.48;;;;;;;7.92;95.08;100000.22;5024904;28;20437;-80
2023/01/08 09:41:42;;;;;;;4.47;0.90;;;;;;;8.03;95.05;99996.53;5040756;28;20049;-79
2023/01/08 09:44:14;;;;;;;5.88;1.20;;;;;;;8.08;94.92;99994.28;5029844;28;20040;-80
2023/01/08 09:46:40;;;;;;;8.60;1.30;;;;;;;8.31;94.23;99997.06;5050164;28;20069;-79
2023/01/08 09:49:10;;;;;;;5.18;1.50;;;;;;;8.32;93.33;99996.06;5045233;28;20127;-80
2023/01/08 09:51:37;;;;;;;4.90;0.73;;;;;;;8.47;92.71;99995.47;5030831;28;20044;-79
2023/01/08 09:54:06;;;;;;;11.52;1.40;;;;;;;8.63;92.98;99994.69;5022046;28;20125;-80
2023/01/08 09:56:33;;;;;;;9.85;1.17;;;;;;;8.66;92.44;99992.53;5045941;28;20505;-80
2023/01/08 09:59:02;;;;;;;8.73;1.88;;;;;;;8.81;92.18;99990.09;5033010;28;20398;-79
2023/01/08 10:01:30;;;;;;;7.20;1.60;;;;;;;8.88;90.14;99979.94;5037067;28;20091;-80
2023/01/08 10:04:05;;;;;;;6.60;1.10;;;;;;;8.92;89.88;99976.84;5016070;28;20132;-80
2023/01/08 10:06:31;;;;;;;5.20;1.10;;;;;;;9.07;89.05;99963.22;5047262;28;20065;-80
2023/01/08 10:08:57;;;;;;;8.35;1.42;;;;;;;9.08;90.42;99960.50;5026601;28;20033;-80
2023/01/08 10:11:26;;;;;;;6.63;1.25;;;;;;;9.09;89.18;99956.13;5043762;28;20041;-80
2023/01/08 10:13:54;;;;;;;7.35;0.93;;;;;;;9.07;88.70;99945.13;5029952;28;20025;-80
2023/01/08 10:16:32;;;;;;;7.93;1.20;;;;;;;8.96;88.74;99944.50;5030834;28;21834;-80
2023/01/08 10:18:58;;;;;;;3.03;0.80;;;;;;;9.02;88.72;99942.22;5031844;28;20032;-80
2023/01/08 10:21:30;;;;;;;4.72;1.13;;;;;;;8.95;88.07;99934.34;5029210;28;20066;-79
2023/01/08 10:23:55;;;;;;;5.78;1.05;;;;;;;8.92;88.36;99930.28;5046369;28;20036;-80
2023/01/08 10:26:26;;;;;;;4.43;1.20;;;;;;;8.99;88.04;99921.91;5027804;28;20041;-80
2023/01/08 10:29:05;;;;;;;6.50;1.15;;;;;;;9.03;88.51;99925.75;5042671;28;20398;-80
2023/01/08 10:31:31;;;;;;;9.25;2.08;;;;;;;9.24;86.88;99918.22;5048063;28;20216;-79
2023/01/08 10:33:56;;;;;;;7.43;1.10;;;;;;;9.33;87.17;99908.66;5030765;28;20642;-80
2023/01/08 10:36:23;;;;;;;4.13;1.13;;;;;;;9.41;87.55;99910.41;5030054;28;20042;-80
2023/01/08 10:38:59;;;;;;;5.43;1.00;;;;;;;9.52;87.05;99905.63;5031509;28;20245;-80
2023/01/08 10:41:25;;;;;;;8.95;1.10;;;;;;;9.53;85.95;99902.09;5024918;28;20041;-80
2023/01/08 10:44:04;;;;;;;8.23;1.00;;;;;;;9.74;84.46;99896.28;5030246;28;20029;-79
2023/01/08 10:46:53;;;;;;;11.73;2.65;;;;;;;9.70;83.38;99892.44;5025092;28;20096;-80
2023/01/08 10:49:31;;;;;;;7.47;1.83;;;;;;;9.67;83.98;99887.59;5026290;28;20460;-81
2023/01/08 10:51:56;;;;;;;15.52;4.43;;;;;;;9.67;83.79;99874.63;5026739;28;20092;-80
2023/01/08 10:54:31;;;;;;;5.28;1.05;;;;;;;9.67;84.44;99879.81;5013628;28;20033;-80
2023/01/08 10:56:57;;;;;;;3.42;0.90;;;;;;;9.60;84.44;99878.88;5031669;28;20509;-80
2023/01/08 10:59:23;;;;;;;5.07;0.73;;;;;;;9.61;83.65;99871.94;5030469;28;20030;-80
2023/01/08 11:01:52;;;;;;;3.22;0.70;;;;;;;9.63;83.33;99872.59;5015232;28;20042;-80
2023/01/08 11:04:27;;;;;;;10.82;1.20;;;;;;;9.61;84.42;99872.75;5029740;28;20045;-80
2023/01/08 11:06:58;;;;;;;2.85;0.77;;;;;;;9.52;85.25;99861.63;5026142;28;20175;-80
2023/01/08 11:09:27;;;;;;;8.52;2.30;;;;;;;9.38;86.92;99875.31;5029301;28;20048;-81
2023/01/08 11:11:53;;;;;;;9.38;1.45;;;;;;;9.37;89.07;99859.97;5035540;28;20064;-82
2023/01/08 11:14:28;;;;;;;4.78;0.80;;;;;;;9.25;91.16;99860.34;5048753;28;20172;-81
2023/01/08 11:16:54;;;;;;;9.75;1.98;;;;;;;9.14;92.92;99855.56;5019226;28;20502;-81
2023/01/08 11:19:27;;;;;;;9.57;2.05;;;;;;;9.06;93.63;99848.66;5020293;28;20025;-81
2023/01/08 11:21:57;;;;;;;6.82;1.77;;;;;;;9.10;92.65;99855.09;5027785;28;20436;-81
2023/01/08 11:24:37;;;;;;;21.58;5.00;;;;;;;9.00;93.12;99859.66;5052513;28;20052;-81
2023/01/08 11:27:22;;;;;;;23.67;6.13;;;;;;;9.01;94.85;99856.09;5052869;28;20075;-81
2023/01/08 11:30:11;;;;;;;16.17;5.80;;;;;;;9.03;95.02;99855.94;5046719;28;20045;-81
2023/01/08 11:32:56;;;;;;;8.02;3.42;;;;;;;9.02;95.71;99849.13;5037211;28;20064;-81
2023/01/08 11:35:38;;;;;;;6.38;2.35;;;;;;;8.90;98.22;99853.88;5048479;28;20401;-81
2023/01/08 11:38:07;;;;;;;6.43;1.60;;;;;;;8.80;98.93;99841.16;5048545;28;20041;-82
2023/01/08 11:41:03;;;;;;;8.35;1.50;;;;;;;8.61;99.54;99854.44;5017248;28;20038;-82